createdAt,value
2018-01-23T00:01:18.454Z,94.19
2018-01-23T00:03:45.946Z,94.27
2018-01-23T00:06:13.408Z,94.22
2018-01-23T00:08:40.867Z,94.29
2018-01-23T00:11:08.315Z,94.24
2018-01-23T00:13:35.789Z,94.29
2018-01-23T00:16:03.243Z,94.17
2018-01-23T00:18:30.701Z,94.19
2018-01-23T00:20:58.172Z,94.23
2018-01-23T00:23:25.624Z,94.13
2018-01-23T00:25:53.093Z,94.15
2018-01-23T00:28:20.544Z,94.00
2018-01-23T00:30:48.024Z,93.93
2018-01-23T00:33:15.481Z,93.87
2018-01-23T00:35:42.938Z,93.93
2018-01-23T00:38:10.385Z,93.95
2018-01-23T00:40:37.858Z,94.00
2018-01-23T00:43:05.316Z,93.89
2018-01-23T00:45:32.810Z,93.94
2018-01-23T00:48:00.264Z,93.98
2018-01-23T00:50:27.730Z,93.92
2018-01-23T00:52:55.199Z,94.13
2018-01-23T00:55:22.685Z,94.18
2018-01-23T00:57:50.142Z,94.12
2018-01-23T01:00:17.601Z,94.03
2018-01-23T01:02:45.072Z,93.85
2018-01-23T01:05:12.524Z,93.97
2018-01-23T01:07:39.988Z,94.02
2018-01-23T01:10:07.453Z,94.02
2018-01-23T01:12:34.923Z,93.95
2018-01-23T01:15:02.398Z,93.97
2018-01-23T01:17:29.896Z,93.95
2018-01-23T01:19:57.365Z,93.98
2018-01-23T01:22:25.004Z,94.16
2018-01-23T01:24:52.501Z,94.24
2018-01-23T01:27:19.959Z,94.53
2018-01-23T01:29:47.424Z,94.66
2018-01-23T01:32:14.885Z,94.90
2018-01-23T01:34:42.362Z,95.25
2018-01-23T01:37:09.830Z,95.30
2018-01-23T01:39:37.292Z,95.39
2018-01-23T01:42:04.775Z,95.76
2018-01-23T01:44:32.242Z,95.86
2018-01-23T01:46:59.702Z,95.91
2018-01-23T01:49:27.172Z,95.79
2018-01-23T01:51:54.629Z,95.68
2018-01-23T01:54:22.123Z,95.63
2018-01-23T01:56:49.596Z,95.75
2018-01-23T01:59:17.160Z,95.94
2018-01-23T02:01:44.631Z,96.10
2018-01-23T02:04:12.118Z,96.10
2018-01-23T02:06:39.610Z,96.07
2018-01-23T02:09:07.095Z,95.95
2018-01-23T02:11:34.596Z,95.85
2018-01-23T02:14:02.085Z,95.81
2018-01-23T02:16:29.610Z,95.82
2018-01-23T02:18:57.075Z,95.84
2018-01-23T02:21:24.598Z,95.82
2018-01-23T02:23:52.074Z,95.64
2018-01-23T02:26:19.607Z,95.72
2018-01-23T02:28:47.110Z,95.76
2018-01-23T02:31:14.614Z,95.86
2018-01-23T02:33:42.131Z,95.92
2018-01-23T02:36:09.605Z,95.88
2018-01-23T02:38:37.089Z,95.99
2018-01-23T02:41:04.664Z,95.95
2018-01-23T02:43:32.158Z,95.89
2018-01-23T02:45:59.650Z,95.79
2018-01-23T02:48:27.188Z,95.84
2018-01-23T02:50:54.673Z,95.74
2018-01-23T02:53:22.169Z,95.69
2018-01-23T02:55:49.632Z,95.67
2018-01-23T02:58:17.117Z,95.66
2018-01-23T03:00:44.606Z,95.65
2018-01-23T03:03:12.206Z,95.58
2018-01-23T03:05:39.672Z,95.58
2018-01-23T03:08:07.162Z,95.71
2018-01-23T03:10:34.663Z,95.65
2018-01-23T03:13:02.148Z,95.64
2018-01-23T03:15:29.622Z,95.62
2018-01-23T03:17:57.101Z,95.58
2018-01-23T03:20:24.592Z,95.61
2018-01-23T03:22:52.096Z,95.62
2018-01-23T03:25:19.580Z,95.57
2018-01-23T03:27:47.030Z,95.49
2018-01-23T03:30:14.514Z,95.54
2018-01-23T03:32:42.050Z,95.52
2018-01-23T03:35:09.815Z,95.51
2018-01-23T03:37:37.320Z,95.38
2018-01-23T03:40:04.792Z,95.36
2018-01-23T03:42:32.320Z,95.38
2018-01-23T03:44:59.793Z,95.34
2018-01-23T03:47:27.312Z,95.41
2018-01-23T03:49:54.786Z,95.49
2018-01-23T03:52:22.271Z,95.56
2018-01-23T03:54:49.756Z,95.64
2018-01-23T03:57:17.241Z,95.66
2018-01-23T03:59:44.736Z,95.57
2018-01-23T04:02:12.271Z,95.53
2018-01-23T04:04:39.743Z,95.48
2018-01-23T04:07:07.215Z,95.50
2018-01-23T04:09:34.667Z,95.55
2018-01-23T04:12:02.265Z,95.57
2018-01-23T04:14:29.738Z,95.52
2018-01-23T04:16:57.193Z,95.48
2018-01-23T04:19:24.678Z,95.49
2018-01-23T04:21:52.151Z,95.49
2018-01-23T04:24:19.675Z,95.26
2018-01-23T04:26:47.221Z,95.23
2018-01-23T04:29:14.668Z,95.28
2018-01-23T04:31:42.148Z,95.19
2018-01-23T04:34:09.616Z,95.14
2018-01-23T04:36:37.065Z,95.13
2018-01-23T04:39:04.559Z,95.14
2018-01-23T04:41:32.020Z,95.08
2018-01-23T04:43:59.508Z,95.06
2018-01-23T04:46:26.983Z,95.12
2018-01-23T04:48:54.477Z,95.05
2018-01-23T04:51:21.961Z,95.06
2018-01-23T04:53:49.457Z,94.97
2018-01-23T04:56:16.914Z,94.89
2018-01-23T04:58:44.393Z,94.83
2018-01-23T05:01:11.874Z,95.02
2018-01-23T05:03:39.360Z,95.35
2018-01-23T05:06:06.820Z,95.55
2018-01-23T05:08:34.264Z,95.58
2018-01-23T05:11:01.735Z,95.62
2018-01-23T05:13:29.188Z,95.71
2018-01-23T05:15:56.642Z,95.67
2018-01-23T05:18:24.093Z,95.54
2018-01-23T05:20:51.554Z,95.49
2018-01-23T05:23:19.008Z,95.41
2018-01-23T05:25:46.478Z,95.36
2018-01-23T05:28:13.966Z,95.32
2018-01-23T05:30:41.475Z,95.44
2018-01-23T05:33:08.931Z,95.59
2018-01-23T05:35:36.392Z,95.67
2018-01-23T05:38:03.869Z,95.71
2018-01-23T05:40:31.314Z,95.74
2018-01-23T05:42:58.785Z,97.32
2018-01-23T05:45:26.244Z,96.08
2018-01-23T05:47:53.737Z,92.44
2018-01-23T05:50:21.182Z,90.10
2018-01-23T05:52:48.658Z,87.38
2018-01-23T05:55:16.185Z,88.56
2018-01-23T05:57:43.637Z,90.25
2018-01-23T06:00:11.169Z,91.46
2018-01-23T06:02:38.617Z,92.42
2018-01-23T06:05:06.087Z,93.20
2018-01-23T06:07:33.537Z,93.80
2018-01-23T06:10:01.004Z,94.28
2018-01-23T06:12:28.456Z,94.58
2018-01-23T06:14:55.916Z,94.81
2018-01-23T06:17:23.411Z,94.98
2018-01-23T06:19:50.899Z,95.23
2018-01-23T06:22:18.359Z,95.35
2018-01-23T06:24:45.812Z,95.46
2018-01-23T06:27:13.283Z,95.56
2018-01-23T06:29:40.754Z,95.72
2018-01-23T06:32:08.217Z,95.96
2018-01-23T06:34:35.666Z,95.80
2018-01-23T06:37:03.132Z,95.78
2018-01-23T06:39:30.593Z,95.77
2018-01-23T06:41:58.057Z,95.99
2018-01-23T06:44:25.522Z,96.12
2018-01-23T06:46:53.690Z,96.18
2018-01-23T06:49:21.142Z,96.23
2018-01-23T06:51:48.596Z,96.18
2018-01-23T06:54:16.090Z,95.93
2018-01-23T06:56:43.565Z,95.84
2018-01-23T06:59:11.030Z,95.81
2018-01-23T07:01:38.483Z,95.72
2018-01-23T07:04:05.957Z,95.78
2018-01-23T07:06:33.413Z,95.75
2018-01-23T07:09:00.881Z,95.76
2018-01-23T07:11:28.335Z,95.78
2018-01-23T07:13:55.797Z,95.74
2018-01-23T07:16:23.254Z,95.69
2018-01-23T07:18:50.745Z,95.66
2018-01-23T07:21:18.204Z,95.65
2018-01-23T07:23:45.686Z,95.63
2018-01-23T07:26:13.155Z,95.51
2018-01-23T07:28:40.614Z,95.58
2018-01-23T07:31:08.097Z,95.67
2018-01-23T07:33:35.571Z,95.76
2018-01-23T07:36:03.067Z,95.74
2018-01-23T07:38:30.525Z,95.76
2018-01-23T07:40:57.999Z,95.73
2018-01-23T07:43:25.465Z,95.63
2018-01-23T07:45:52.944Z,95.55
2018-01-23T07:48:20.396Z,95.62
2018-01-23T07:50:47.877Z,95.72
2018-01-23T07:53:15.361Z,95.75
2018-01-23T07:55:42.818Z,95.91
2018-01-23T07:58:10.303Z,95.98
2018-01-23T08:00:37.809Z,95.95
2018-01-23T08:03:05.283Z,95.90
2018-01-23T08:05:32.733Z,95.94
2018-01-23T08:08:00.216Z,95.92
2018-01-23T08:10:27.685Z,95.84
2018-01-23T08:12:55.170Z,95.58
2018-01-23T08:15:22.624Z,95.40
2018-01-23T08:17:50.086Z,95.43
2018-01-23T08:20:17.555Z,95.35
2018-01-23T08:22:45.014Z,95.46
2018-01-23T08:25:12.492Z,95.64
2018-01-23T08:30:13.627Z,95.76
2018-01-23T08:32:41.087Z,95.67
2018-01-23T08:35:08.555Z,95.71
2018-01-23T08:37:36.028Z,95.63
2018-01-23T08:40:03.488Z,95.58
2018-01-23T08:42:30.957Z,95.72
2018-01-23T08:44:58.432Z,95.71
2018-01-23T08:47:25.901Z,95.76
2018-01-23T08:49:53.381Z,95.74
2018-01-23T08:52:20.828Z,95.57
2018-01-23T08:54:48.348Z,95.61
2018-01-23T08:57:15.804Z,95.51
2018-01-23T08:59:43.273Z,95.42
2018-01-23T09:02:10.745Z,95.33
2018-01-23T09:04:38.205Z,95.34
2018-01-23T09:07:05.678Z,95.33
2018-01-23T09:09:33.162Z,95.28
2018-01-23T09:12:00.642Z,94.90
2018-01-23T09:14:28.105Z,94.83
2018-01-23T09:16:55.580Z,94.66
2018-01-23T09:19:23.049Z,94.57
2018-01-23T09:21:50.515Z,94.56
2018-01-23T09:24:17.980Z,94.47
2018-01-23T09:26:45.445Z,94.69
2018-01-23T09:29:12.924Z,94.56
2018-01-23T09:31:40.372Z,94.16
2018-01-23T09:34:07.841Z,93.95
2018-01-23T09:36:35.288Z,94.13
2018-01-23T09:39:02.759Z,94.00
2018-01-23T09:41:30.224Z,93.94
2018-01-23T09:43:57.685Z,93.88
2018-01-23T09:46:25.174Z,93.67
2018-01-23T09:48:52.667Z,93.94
2018-01-23T09:51:20.134Z,94.13
2018-01-23T09:53:47.626Z,94.40
2018-01-23T09:56:15.092Z,94.67
2018-01-23T09:58:42.557Z,94.85
2018-01-23T10:01:10.032Z,94.59
2018-01-23T10:03:37.476Z,94.35
2018-01-23T10:06:04.950Z,94.66
2018-01-23T10:08:32.404Z,94.86
2018-01-23T10:10:59.892Z,95.00
2018-01-23T10:13:27.361Z,95.12
2018-01-23T10:15:54.847Z,95.17
2018-01-23T10:18:22.304Z,95.20
2018-01-23T10:20:49.804Z,95.12
2018-01-23T10:23:17.305Z,94.97
2018-01-23T10:25:44.768Z,95.16
2018-01-23T10:28:12.239Z,95.17
2018-01-23T10:30:39.705Z,95.23
2018-01-23T10:33:07.167Z,95.15
2018-01-23T10:35:34.635Z,95.21
2018-01-23T10:38:02.108Z,95.13
2018-01-23T10:40:29.601Z,95.28
2018-01-23T10:42:57.091Z,95.15
2018-01-23T10:45:24.564Z,95.12
2018-01-23T10:47:52.028Z,95.33
2018-01-23T10:50:19.496Z,95.32
2018-01-23T10:52:46.971Z,94.80
2018-01-23T10:55:14.461Z,94.88
2018-01-23T10:57:41.937Z,94.84
2018-01-23T11:00:09.423Z,94.84
2018-01-23T11:02:36.923Z,95.05
2018-01-23T11:05:04.399Z,95.09
2018-01-23T11:07:31.870Z,94.76
2018-01-23T11:09:59.348Z,94.71
2018-01-23T11:12:26.812Z,94.65
2018-01-23T11:14:54.278Z,94.62
2018-01-23T11:17:21.754Z,93.94
2018-01-23T11:19:49.250Z,93.92
2018-01-23T11:22:16.716Z,93.96
2018-01-23T11:24:44.182Z,94.39
2018-01-23T11:27:11.720Z,94.74
2018-01-23T11:29:39.179Z,94.96
2018-01-23T11:32:06.669Z,94.72
2018-01-23T11:34:34.145Z,94.56
2018-01-23T11:37:01.614Z,94.50
2018-01-23T11:39:29.080Z,94.31
2018-01-23T11:41:56.575Z,94.41
2018-01-23T11:44:24.042Z,94.35
2018-01-23T11:46:51.642Z,94.52
2018-01-23T11:49:19.109Z,94.29
2018-01-23T11:51:46.577Z,94.38
2018-01-23T11:54:14.056Z,94.53
2018-01-23T11:56:41.531Z,94.59
2018-01-23T11:59:09.022Z,94.38
2018-01-23T12:01:36.494Z,94.39
2018-01-23T12:04:03.971Z,94.13
2018-01-23T12:06:31.433Z,93.98
2018-01-23T12:08:58.936Z,94.16
2018-01-23T12:11:26.410Z,94.39
2018-01-23T12:13:53.894Z,94.49
2018-01-23T12:16:21.355Z,94.88
2018-01-23T12:18:48.825Z,95.07
2018-01-23T12:21:16.298Z,95.44
2018-01-23T12:23:43.767Z,95.54
2018-01-23T12:26:11.259Z,95.39
2018-01-23T12:28:38.718Z,95.41
2018-01-23T12:31:06.190Z,95.51
2018-01-23T12:33:33.664Z,95.41
2018-01-23T12:36:01.145Z,95.38
2018-01-23T12:38:28.623Z,95.35
2018-01-23T12:40:56.103Z,95.36
2018-01-23T12:43:23.603Z,95.41
2018-01-23T12:45:51.066Z,95.40
2018-01-23T12:48:18.538Z,95.05
2018-01-23T12:50:45.994Z,94.35
2018-01-23T12:53:13.477Z,93.40
2018-01-23T12:55:40.944Z,91.65
2018-01-23T12:58:08.397Z,91.30
2018-01-23T13:00:35.860Z,91.40
2018-01-23T13:03:03.326Z,90.53
2018-01-23T13:05:30.785Z,91.30
2018-01-23T13:07:58.240Z,91.88
2018-01-23T13:10:25.716Z,92.24
2018-01-23T13:12:53.176Z,89.60
2018-01-23T13:15:20.645Z,89.62
2018-01-23T13:17:48.105Z,90.12
2018-01-23T13:20:15.586Z,89.81
2018-01-23T13:22:43.049Z,89.91
2018-01-23T13:25:10.533Z,90.18
2018-01-23T13:27:37.990Z,90.75
2018-01-23T13:30:05.449Z,89.90
2018-01-23T13:32:32.915Z,90.77
2018-01-23T13:35:00.377Z,91.25
2018-01-23T13:37:27.903Z,90.69
2018-01-23T13:39:55.396Z,90.13
2018-01-23T13:42:22.848Z,89.77
2018-01-23T13:44:50.314Z,89.73
2018-01-23T13:47:17.779Z,90.44
2018-01-23T13:49:45.253Z,91.02
2018-01-23T13:52:12.729Z,90.05
2018-01-23T13:54:40.202Z,90.19
2018-01-23T13:57:07.698Z,90.00
2018-01-23T13:59:35.159Z,89.52
2018-01-23T14:02:02.673Z,90.71
2018-01-23T14:04:30.174Z,90.32
2018-01-23T14:06:57.644Z,91.62
2018-01-23T14:09:25.144Z,92.01
2018-01-23T14:11:52.652Z,90.84
2018-01-23T14:14:20.108Z,90.98
2018-01-23T14:16:47.588Z,90.99
2018-01-23T14:19:15.065Z,90.33
2018-01-23T14:21:42.553Z,90.03
2018-01-23T14:24:10.018Z,89.92
2018-01-23T14:26:37.483Z,90.53
2018-01-23T14:29:04.952Z,90.68
2018-01-23T14:31:32.444Z,90.27
2018-01-23T14:33:59.929Z,90.38
2018-01-23T14:36:27.428Z,91.14
2018-01-23T14:38:54.890Z,90.30
2018-01-23T14:41:22.384Z,91.12
2018-01-23T14:43:49.858Z,90.77
2018-01-23T14:46:17.349Z,90.57
2018-01-23T14:48:44.819Z,90.70
2018-01-23T14:51:12.316Z,90.36
2018-01-23T14:53:39.796Z,91.37
2018-01-23T14:56:07.371Z,90.65
2018-01-23T14:58:34.861Z,90.70
2018-01-23T15:01:02.324Z,91.03
2018-01-23T15:03:29.768Z,89.76
2018-01-23T15:05:57.284Z,90.12
2018-01-23T15:08:24.755Z,91.15
2018-01-23T15:10:52.246Z,90.34
2018-01-23T15:13:19.717Z,90.58
2018-01-23T15:15:47.198Z,90.83
2018-01-23T15:18:14.654Z,89.94
2018-01-23T15:20:42.144Z,89.73
2018-01-23T15:23:09.595Z,90.82
2018-01-23T15:25:37.052Z,90.17
2018-01-23T15:28:04.521Z,90.16
2018-01-23T15:30:31.994Z,90.17
2018-01-23T15:32:59.481Z,89.02
2018-01-23T15:35:27.043Z,88.19
2018-01-23T15:37:54.730Z,89.03
2018-01-23T15:40:22.303Z,89.70
2018-01-23T15:42:49.814Z,87.91
2018-01-23T15:45:17.312Z,86.76
2018-01-23T15:47:44.808Z,87.95
2018-01-23T15:50:12.275Z,87.47
2018-01-23T15:52:39.755Z,87.30
2018-01-23T15:55:07.274Z,87.73
2018-01-23T15:57:34.775Z,87.53
2018-01-23T16:00:02.239Z,85.79
2018-01-23T16:02:29.713Z,85.55
2018-01-23T16:04:57.190Z,85.71
2018-01-23T16:07:24.666Z,85.41
2018-01-23T16:09:52.141Z,84.99
2018-01-23T16:12:19.628Z,85.09
2018-01-23T16:14:47.089Z,85.15
2018-01-23T16:17:14.656Z,85.50
2018-01-23T16:19:42.164Z,84.92
2018-01-23T16:22:09.630Z,85.26
2018-01-23T16:24:37.170Z,86.30
2018-01-23T16:27:04.728Z,85.96
2018-01-23T16:29:32.205Z,85.25
2018-01-23T16:31:59.676Z,85.29
2018-01-23T16:34:27.163Z,85.25
2018-01-23T16:36:54.641Z,85.02
2018-01-23T16:39:22.168Z,85.22
2018-01-23T16:41:49.620Z,84.18
2018-01-23T16:44:17.192Z,84.07
2018-01-23T16:46:44.690Z,84.13
2018-01-23T16:49:12.188Z,84.14
2018-01-23T16:51:39.705Z,84.46
2018-01-23T16:54:07.167Z,84.65
2018-01-23T16:56:34.672Z,84.43
2018-01-23T16:59:02.156Z,83.94
2018-01-23T17:01:29.723Z,84.46
2018-01-23T17:03:57.193Z,84.58
2018-01-23T17:06:24.785Z,84.22
2018-01-23T17:08:52.298Z,84.63
2018-01-23T17:11:19.773Z,84.68
2018-01-23T17:13:47.239Z,84.23
2018-01-23T17:16:14.705Z,83.58
2018-01-23T17:18:42.183Z,83.76
2018-01-23T17:21:09.666Z,84.36
2018-01-23T17:23:37.179Z,84.66
2018-01-23T17:26:04.684Z,84.08
2018-01-23T17:28:32.177Z,84.61
2018-01-23T17:30:59.727Z,84.19
2018-01-23T17:33:27.236Z,83.27
2018-01-23T17:35:54.710Z,83.69
2018-01-23T17:38:22.322Z,83.82
2018-01-23T17:40:49.846Z,83.80
2018-01-23T17:43:17.313Z,83.66
2018-01-23T17:45:44.832Z,84.11
2018-01-23T17:48:12.358Z,84.14
2018-01-23T17:50:39.876Z,84.50
2018-01-23T17:53:07.392Z,84.89
2018-01-23T17:55:34.888Z,85.03
2018-01-23T17:58:02.357Z,85.54
2018-01-23T18:00:38.216Z,85.42
2018-01-23T18:03:05.766Z,85.02
2018-01-23T18:05:33.321Z,84.98
2018-01-23T18:08:00.790Z,85.48
2018-01-23T18:10:28.282Z,84.12
2018-01-23T18:12:55.795Z,84.82
2018-01-23T18:15:23.272Z,84.89
2018-01-23T18:17:50.748Z,84.51
2018-01-23T18:20:18.259Z,84.84
2018-01-23T18:22:45.744Z,84.76
2018-01-23T18:25:13.247Z,84.58
2018-01-23T18:27:40.832Z,84.68
2018-01-23T18:30:08.363Z,85.49
2018-01-23T18:32:35.913Z,86.10
2018-01-23T18:35:03.450Z,87.39
2018-01-23T18:37:30.954Z,88.84
2018-01-23T18:39:58.434Z,85.93
2018-01-23T18:42:25.955Z,84.66
2018-01-23T18:44:53.482Z,85.28
2018-01-23T18:47:20.989Z,86.04
2018-01-23T18:49:48.513Z,87.00
2018-01-23T18:52:15.980Z,87.56
2018-01-23T18:54:43.478Z,88.50
2018-01-23T18:57:10.940Z,88.68
2018-01-23T18:59:38.449Z,88.82
2018-01-23T19:02:05.920Z,89.13
2018-01-23T19:04:33.438Z,89.62
2018-01-23T19:07:00.952Z,89.48
2018-01-23T19:09:28.434Z,89.23
2018-01-23T19:11:55.900Z,87.23
2018-01-23T19:14:23.425Z,85.92
2018-01-23T19:16:50.910Z,85.74
2018-01-23T19:19:18.446Z,85.73
2018-01-23T19:21:46.015Z,85.57
2018-01-23T19:24:13.544Z,84.45
2018-01-23T19:26:41.019Z,84.51
2018-01-23T19:29:08.826Z,84.18
2018-01-23T19:31:36.341Z,83.50
2018-01-23T19:34:03.873Z,83.40
2018-01-23T19:36:31.356Z,83.38
2018-01-23T19:38:58.898Z,83.04
2018-01-23T19:41:26.424Z,82.51
2018-01-23T19:43:53.933Z,82.69
2018-01-23T19:46:21.453Z,82.50
2018-01-23T19:48:48.963Z,81.87
2018-01-23T19:51:16.430Z,82.17
2018-01-23T19:53:43.951Z,81.78
2018-01-23T19:56:11.488Z,81.15
2018-01-23T19:58:38.980Z,81.31
2018-01-23T20:01:06.504Z,80.59
2018-01-23T20:03:34.029Z,80.47
2018-01-23T20:06:01.950Z,80.09
2018-01-23T20:08:30.321Z,80.03
2018-01-23T20:10:57.876Z,79.23
2018-01-23T20:13:25.354Z,79.28
2018-01-23T20:15:52.858Z,78.98
2018-01-23T20:18:20.383Z,78.86
2018-01-23T20:20:47.832Z,78.52
2018-01-23T20:23:15.304Z,78.18
2018-01-23T20:25:42.763Z,77.98
2018-01-23T20:28:10.323Z,77.67
2018-01-23T20:30:37.870Z,77.45
2018-01-23T20:33:05.473Z,77.85
2018-01-23T20:35:32.975Z,77.86
2018-01-23T20:38:00.464Z,77.56
2018-01-23T20:40:27.970Z,77.46
2018-01-23T20:42:55.453Z,76.75
2018-01-23T20:45:22.978Z,76.71
2018-01-23T20:47:50.436Z,76.88
2018-01-23T20:50:18.162Z,77.70
2018-01-23T20:52:45.633Z,76.70
2018-01-23T20:55:13.111Z,76.39
2018-01-23T20:57:40.632Z,76.23
2018-01-23T21:00:08.249Z,76.43
2018-01-23T21:02:35.774Z,76.35
2018-01-23T21:05:03.239Z,76.44
2018-01-23T21:07:30.714Z,75.83
2018-01-23T21:09:58.192Z,75.83
2018-01-23T21:12:25.725Z,75.10
2018-01-23T21:14:53.286Z,74.76
2018-01-23T21:17:20.734Z,75.63
2018-01-23T21:19:48.185Z,75.25
2018-01-23T21:22:15.736Z,75.42
2018-01-23T21:24:43.259Z,74.87
2018-01-23T21:27:10.819Z,75.46
2018-01-23T21:29:38.330Z,75.28
2018-01-23T21:32:05.790Z,74.92
2018-01-23T21:34:33.258Z,75.82
2018-01-23T21:37:00.769Z,75.38
2018-01-23T21:39:28.277Z,75.36
2018-01-23T21:41:55.796Z,74.55
2018-01-23T21:44:23.293Z,74.72
2018-01-23T21:46:50.804Z,74.63
2018-01-23T21:49:18.337Z,74.99
2018-01-23T21:51:45.799Z,75.02
2018-01-23T21:54:13.339Z,74.03
2018-01-23T21:56:40.945Z,73.96
2018-01-23T21:59:08.416Z,73.75
2018-01-23T22:01:35.967Z,73.76
2018-01-23T22:04:03.491Z,73.79
2018-01-23T22:06:31.036Z,74.05
2018-01-23T22:08:58.536Z,73.75
2018-01-23T22:11:25.990Z,73.69
2018-01-23T22:13:53.448Z,73.99
2018-01-23T22:16:20.899Z,74.19
2018-01-23T22:18:48.415Z,73.96
2018-01-23T22:21:15.888Z,74.37
2018-01-23T22:23:43.347Z,75.41
2018-01-23T22:26:10.897Z,76.39
2018-01-23T22:28:38.453Z,76.94
2018-01-23T22:31:05.954Z,77.66
2018-01-23T22:33:33.459Z,77.80
2018-01-23T22:36:00.896Z,78.09
2018-01-23T22:38:28.370Z,78.02
2018-01-23T22:40:55.834Z,77.98
2018-01-23T22:43:23.299Z,78.13
2018-01-23T22:45:50.764Z,78.21
2018-01-23T22:48:18.237Z,78.47
2018-01-23T22:50:45.704Z,78.88
2018-01-23T22:53:13.160Z,79.26
2018-01-23T22:55:40.645Z,79.35
2018-01-23T22:58:08.120Z,79.79
2018-01-23T23:00:35.592Z,80.22
2018-01-23T23:03:03.060Z,80.29
2018-01-23T23:05:30.521Z,80.69
2018-01-23T23:07:57.993Z,80.83
2018-01-23T23:10:25.445Z,80.90
2018-01-23T23:12:52.916Z,81.16
2018-01-23T23:15:20.408Z,81.17
2018-01-23T23:17:47.885Z,81.48
2018-01-23T23:20:15.376Z,81.43
2018-01-23T23:22:42.889Z,81.54
2018-01-23T23:25:10.349Z,81.63
2018-01-23T23:27:37.832Z,81.68
2018-01-23T23:30:05.297Z,82.01
2018-01-23T23:32:32.776Z,81.99
2018-01-23T23:35:00.234Z,81.90
2018-01-23T23:37:27.709Z,81.83
2018-01-23T23:39:55.165Z,82.19
2018-01-23T23:42:22.629Z,82.03
2018-01-23T23:44:50.098Z,81.87
2018-01-23T23:47:17.561Z,81.85
2018-01-23T23:49:45.035Z,82.05
2018-01-23T23:52:12.494Z,81.99
2018-01-23T23:54:39.969Z,81.98
2018-01-23T23:57:07.424Z,82.10
2018-01-23T23:59:34.892Z,82.00
